createdAt,value
2022-08-19T00:02:35.988Z,101181.63
2022-08-19T00:05:33.407Z,101178.22
2022-08-19T00:08:31.854Z,101178.41
2022-08-19T00:11:28.904Z,101177.06
2022-08-19T00:14:28.744Z,101161.19
2022-08-19T00:17:25.854Z,101159.00
2022-08-19T00:20:24.658Z,101166.53
2022-08-19T00:23:24.822Z,101171.88
2022-08-19T00:26:22.694Z,101166.59
2022-08-19T00:29:20.940Z,101158.75
2022-08-19T00:32:18.761Z,101159.09
2022-08-19T00:35:18.411Z,101163.97
2022-08-19T00:38:15.867Z,101158.66
2022-08-19T00:41:33.159Z,101163.44
2022-08-19T00:44:31.325Z,101165.44
2022-08-19T00:47:28.471Z,101173.78
2022-08-19T00:50:25.459Z,101174.63
2022-08-19T00:53:23.973Z,101178.69
2022-08-19T00:56:21.615Z,101179.94
2022-08-19T01:00:00.263Z,101178.44
2022-08-19T01:02:35.609Z,101167.69
2022-08-19T01:05:32.739Z,101161.47
2022-08-19T01:08:29.829Z,101150.16
2022-08-19T01:11:29.821Z,101156.34
2022-08-19T01:14:26.646Z,101156.31
2022-08-19T01:17:23.358Z,101150.94
2022-08-19T01:20:22.478Z,101151.38
2022-08-19T01:23:19.482Z,101148.56
2022-08-19T01:26:19.041Z,101145.66
2022-08-19T01:29:16.721Z,101136.69
2022-08-19T01:32:33.232Z,101129.69
2022-08-19T01:35:33.222Z,101126.78
2022-08-19T01:38:32.593Z,101129.72
2022-08-19T01:41:29.586Z,101115.00
2022-08-19T01:44:26.881Z,101109.69
2022-08-19T01:47:23.641Z,101099.81
2022-08-19T01:50:20.938Z,101102.69
2022-08-19T01:53:19.438Z,101094.88
2022-08-19T01:56:17.092Z,101096.34
2022-08-19T01:59:16.845Z,101103.22
2022-08-19T02:02:14.883Z,101106.88
2022-08-19T02:05:12.097Z,101118.03
2022-08-19T02:08:09.943Z,101113.56
2022-08-19T02:11:07.131Z,101108.97
2022-08-19T02:14:06.975Z,101100.28
2022-08-19T02:17:04.925Z,101101.81
2022-08-19T02:20:02.706Z,101103.19
2022-08-19T02:22:59.644Z,101103.69
2022-08-19T02:25:56.904Z,101103.72
2022-08-19T02:28:56.595Z,101100.00
2022-08-19T02:31:53.411Z,101101.19
2022-08-19T02:34:50.995Z,101112.84
2022-08-19T02:38:06.527Z,101115.94
2022-08-19T02:41:09.112Z,101124.25
2022-08-19T02:44:29.362Z,101119.38
2022-08-19T02:47:24.799Z,101112.50
2022-08-19T02:50:21.454Z,101114.97
2022-08-19T02:53:18.639Z,101110.03
2022-08-19T02:56:15.988Z,101107.59
2022-08-19T02:59:12.876Z,101101.03
2022-08-19T03:02:10.911Z,101099.41
2022-08-19T03:05:09.022Z,101092.00
2022-08-19T03:08:06.783Z,101089.16
2022-08-19T03:11:03.893Z,101084.69
2022-08-19T03:14:01.905Z,101092.44
2022-08-19T03:16:58.866Z,101087.94
2022-08-19T03:19:56.595Z,101085.44
2022-08-19T03:22:53.874Z,101081.38
2022-08-19T03:26:03.227Z,101083.81
2022-08-19T03:29:11.761Z,101088.31
2022-08-19T03:32:27.899Z,101082.13
2022-08-19T03:35:27.817Z,101083.78
2022-08-19T03:38:24.776Z,101079.22
2022-08-19T03:41:23.673Z,101082.97
2022-08-19T03:44:23.057Z,101066.31
2022-08-19T03:47:20.478Z,101072.84
2022-08-19T03:50:18.168Z,101069.19
2022-08-19T03:53:16.324Z,101078.97
2022-08-19T03:56:14.079Z,101074.88
2022-08-19T03:59:22.275Z,101091.25
2022-08-19T04:02:19.827Z,101090.00
2022-08-19T04:05:17.033Z,101091.25
2022-08-19T04:08:14.317Z,101102.69
2022-08-19T04:11:16.335Z,101103.28
2022-08-19T04:14:15.400Z,101108.53
2022-08-19T04:17:13.922Z,101126.50
2022-08-19T04:20:11.135Z,101120.13
2022-08-19T04:23:08.506Z,101123.44
2022-08-19T04:26:07.339Z,101124.88
2022-08-19T04:29:12.339Z,101117.22
2022-08-19T04:32:10.148Z,101120.63
2022-08-19T04:35:16.757Z,101131.19
2022-08-19T04:38:17.656Z,101134.88
2022-08-19T04:41:33.266Z,101132.97
2022-08-19T04:44:35.278Z,101123.88
2022-08-19T04:47:47.948Z,101128.84
2022-08-19T04:50:50.858Z,101118.38
2022-08-19T04:53:47.833Z,101116.53
2022-08-19T04:56:44.943Z,101120.69
2022-08-19T04:59:42.077Z,101124.38
2022-08-19T05:02:39.559Z,101129.28
2022-08-19T05:05:45.218Z,101123.13
2022-08-19T05:08:44.340Z,101124.78
2022-08-19T05:11:41.929Z,101118.63
2022-08-19T05:14:38.999Z,101126.38
2022-08-19T05:17:38.743Z,101129.69
2022-08-19T05:20:58.177Z,101132.97
2022-08-19T05:23:56.112Z,101125.56
2022-08-19T05:26:53.503Z,101132.94
2022-08-19T05:29:50.739Z,101136.56
2022-08-19T05:32:48.386Z,101134.00
2022-08-19T05:35:45.907Z,101122.78
2022-08-19T05:38:43.202Z,101131.09
2022-08-19T05:41:44.870Z,101135.31
2022-08-19T05:44:45.140Z,101140.59
2022-08-19T05:47:42.782Z,101125.28
2022-08-19T05:50:41.055Z,101115.28
2022-08-19T05:53:38.342Z,101114.91
2022-08-19T05:56:39.225Z,101109.59
2022-08-19T05:59:37.059Z,101113.31
2022-08-19T06:02:36.744Z,101117.72
2022-08-19T06:05:33.929Z,101111.59
2022-08-19T06:08:51.082Z,101103.44
2022-08-19T06:11:56.125Z,101116.91
2022-08-19T06:14:56.055Z,101113.25
2022-08-19T06:17:58.822Z,101119.03
2022-08-19T06:20:56.322Z,101106.38
2022-08-19T06:23:54.068Z,101112.16
2022-08-19T06:26:52.167Z,101104.75
2022-08-19T06:29:50.047Z,101108.84
2022-08-19T06:32:46.717Z,101119.88
2022-08-19T06:38:45.950Z,101123.13
2022-08-19T06:41:51.510Z,101121.06
2022-08-19T06:44:53.221Z,101126.38
2022-08-19T06:47:50.919Z,101123.94
2022-08-19T06:50:50.865Z,101124.38
2022-08-19T06:56:51.749Z,101129.69
2022-08-19T06:59:49.289Z,101130.44
2022-08-19T07:02:52.329Z,101127.59
2022-08-19T07:05:53.516Z,101129.69
2022-08-19T07:08:51.543Z,101121.03
2022-08-19T07:11:53.592Z,101121.41
2022-08-19T07:14:51.269Z,101119.34
2022-08-19T07:17:52.574Z,101120.94
2022-08-19T07:20:50.010Z,101127.03
2022-08-19T07:23:46.806Z,101128.19
2022-08-19T07:26:44.165Z,101131.06
2022-08-19T07:29:41.596Z,101121.06
2022-08-19T07:32:38.661Z,101132.47
2022-08-19T07:35:36.253Z,101148.53
2022-08-19T07:38:34.631Z,101141.91
2022-08-19T07:41:32.359Z,101148.84
2022-08-19T07:44:30.203Z,101144.19
2022-08-19T07:47:49.019Z,101148.34
2022-08-19T07:50:46.475Z,101145.81
2022-08-19T07:53:45.775Z,101147.06
2022-08-19T07:56:43.275Z,101147.91
2022-08-19T07:59:40.039Z,101154.81
2022-08-19T08:02:36.842Z,101154.34
2022-08-19T08:05:52.537Z,101173.16
2022-08-19T08:09:08.575Z,101173.94
2022-08-19T08:12:34.029Z,101181.28
2022-08-19T08:15:31.911Z,101187.91
2022-08-19T08:18:30.439Z,101189.97
2022-08-19T08:21:28.339Z,101181.31
2022-08-19T08:24:28.243Z,101186.47
2022-08-19T08:27:27.148Z,101182.34
2022-08-19T08:30:25.123Z,101188.13
2022-08-19T08:33:30.055Z,101197.09
2022-08-19T08:36:34.371Z,101196.69
2022-08-19T08:39:33.185Z,101196.50
2022-08-19T08:42:36.091Z,101189.63
2022-08-19T08:45:42.435Z,101195.31
2022-08-19T08:48:47.199Z,101198.19
2022-08-19T08:52:07.547Z,101198.47
2022-08-19T08:55:10.417Z,101207.31
2022-08-19T08:58:15.076Z,101197.28
2022-08-19T09:01:12.448Z,101194.13
2022-08-19T09:04:10.173Z,101191.47
2022-08-19T09:07:35.930Z,101192.44
2022-08-19T09:10:44.434Z,101185.78
2022-08-19T09:14:04.463Z,101181.19
2022-08-19T09:17:04.372Z,101174.16
2022-08-19T09:20:09.901Z,101177.53
2022-08-19T09:23:07.226Z,101180.63
2022-08-19T09:26:14.500Z,101176.53
2022-08-19T09:29:14.089Z,101171.22
2022-08-19T09:32:26.426Z,101184.38
2022-08-19T09:35:25.211Z,101171.75
2022-08-19T09:38:22.469Z,101165.16
2022-08-19T09:41:24.289Z,101168.28
2022-08-19T09:44:21.882Z,101178.44
2022-08-19T09:47:20.009Z,101164.84
2022-08-19T09:50:19.156Z,101165.91
2022-08-19T09:53:16.145Z,101173.75
2022-08-19T09:56:13.227Z,101172.00
2022-08-19T09:59:11.321Z,101169.00
2022-08-19T10:02:10.572Z,101166.97
2022-08-19T10:05:27.216Z,101160.59
2022-08-19T10:08:29.136Z,101167.94
2022-08-19T10:11:36.349Z,101161.72
2022-08-19T10:14:37.505Z,101160.13
2022-08-19T10:17:36.255Z,101162.25
2022-08-19T10:20:34.044Z,101155.28
2022-08-19T10:23:33.693Z,101157.09
2022-08-19T10:26:38.214Z,101160.53
2022-08-19T10:29:35.489Z,101159.94
2022-08-19T10:32:34.036Z,101154.56
2022-08-19T10:35:32.439Z,101157.84
2022-08-19T10:38:56.906Z,101157.94
2022-08-19T10:41:57.105Z,101153.56
2022-08-19T10:44:54.103Z,101142.56
2022-08-19T10:47:51.391Z,101146.31
2022-08-19T10:51:07.110Z,101141.50
2022-08-19T10:54:04.289Z,101146.66
2022-08-19T10:57:04.268Z,101143.16
2022-08-19T11:00:01.461Z,101137.09
2022-08-19T11:02:58.962Z,101141.00
2022-08-19T11:06:03.573Z,101148.69
2022-08-19T11:09:01.149Z,101143.78
2022-08-19T11:11:58.230Z,101145.16
2022-08-19T11:15:00.322Z,101146.66
2022-08-19T11:17:57.625Z,101144.69
2022-08-19T11:20:55.125Z,101145.66
2022-08-19T11:23:53.451Z,101137.22
2022-08-19T11:26:51.002Z,101134.31
2022-08-19T11:29:48.093Z,101131.41
2022-08-19T11:32:49.233Z,101133.53
2022-08-19T11:35:47.378Z,101132.53
2022-08-19T11:38:45.001Z,101123.41
2022-08-19T11:41:42.211Z,101127.28
2022-08-19T11:44:39.194Z,101124.97
2022-08-19T11:47:36.264Z,101123.88
2022-08-19T11:50:33.387Z,101121.00
2022-08-19T11:53:31.008Z,101117.84
2022-08-19T11:56:28.374Z,101117.03
2022-08-19T11:59:25.357Z,101112.78
2022-08-19T12:02:24.546Z,101119.72
2022-08-19T12:05:22.081Z,101124.56
2022-08-19T12:08:19.287Z,101117.03
2022-08-19T12:11:15.943Z,101107.91
2022-08-19T12:14:15.125Z,101115.47
2022-08-19T12:17:14.397Z,101104.19
2022-08-19T12:20:11.910Z,101108.97
2022-08-19T12:23:10.510Z,101110.00
2022-08-19T12:26:08.296Z,101106.72
2022-08-19T12:29:05.485Z,101113.56
2022-08-19T12:32:03.818Z,101111.25
2022-08-19T12:35:02.157Z,101105.91
2022-08-19T12:38:00.028Z,101112.25
2022-08-19T12:41:00.188Z,101113.28
2022-08-19T12:43:59.386Z,101101.53
2022-08-19T12:46:58.478Z,101096.50
2022-08-19T12:49:56.050Z,101100.44
2022-08-19T12:52:53.482Z,101087.97
2022-08-19T12:55:57.400Z,101095.06
2022-08-19T12:58:54.263Z,101090.47
2022-08-19T13:01:53.482Z,101097.06
2022-08-19T13:04:52.169Z,101090.22
2022-08-19T13:07:50.076Z,101094.09
2022-08-19T13:10:47.793Z,101094.31
2022-08-19T13:13:46.500Z,101092.69
2022-08-19T13:16:43.859Z,101092.97
2022-08-19T13:19:41.326Z,101093.16
2022-08-19T13:22:38.613Z,101094.88
2022-08-19T13:25:37.250Z,101088.84
2022-08-19T13:28:53.234Z,101093.28
2022-08-19T13:32:08.912Z,101090.47
2022-08-19T13:35:13.700Z,101080.97
2022-08-19T13:38:13.618Z,101077.31
2022-08-19T13:41:14.702Z,101083.00
2022-08-19T13:44:12.635Z,101072.41
2022-08-19T13:47:13.697Z,101072.56
2022-08-19T13:50:12.834Z,101069.44
2022-08-19T13:53:11.279Z,101063.88
2022-08-19T13:56:09.444Z,101063.16
2022-08-19T13:59:06.371Z,101056.31
2022-08-19T14:02:03.527Z,101053.22
2022-08-19T14:05:00.628Z,101050.06
2022-08-19T14:07:59.312Z,101048.00
2022-08-19T14:10:56.451Z,101050.88
2022-08-19T14:13:53.490Z,101057.44
2022-08-19T14:16:50.251Z,101047.44
2022-08-19T14:19:48.240Z,101049.09
2022-08-19T14:22:46.168Z,101046.31
2022-08-19T14:25:43.277Z,101050.44
2022-08-19T14:28:42.686Z,101035.50
2022-08-19T14:31:41.873Z,101034.59
2022-08-19T14:34:39.761Z,101041.63
2022-08-19T14:37:45.456Z,101043.06
2022-08-19T14:40:43.316Z,101050.59
2022-08-19T14:43:40.159Z,101042.50
2022-08-19T14:46:37.379Z,101043.56
2022-08-19T14:49:42.258Z,101041.31
2022-08-19T14:52:42.398Z,101036.13
2022-08-19T14:55:42.423Z,101043.44
2022-08-19T14:58:41.808Z,101046.25
2022-08-19T15:01:40.146Z,101048.47
2022-08-19T15:04:37.506Z,101050.41
2022-08-19T15:07:34.204Z,101055.75
2022-08-19T15:10:32.330Z,101054.38
2022-08-19T15:13:30.458Z,101056.06
2022-08-19T15:16:27.509Z,101063.59
2022-08-19T15:19:24.762Z,101070.34
2022-08-19T15:22:22.238Z,101076.50
2022-08-19T15:25:19.762Z,101078.56
2022-08-19T15:28:17.576Z,101080.41
2022-08-19T15:31:28.046Z,101090.06
2022-08-19T15:34:26.199Z,101091.66
2022-08-19T15:37:24.107Z,101094.31
2022-08-19T15:40:21.377Z,101104.78
2022-08-19T15:43:18.781Z,101099.56
2022-08-19T15:46:18.889Z,101096.53
2022-08-19T15:49:17.463Z,101104.78
2022-08-19T15:52:14.470Z,101104.78
2022-08-19T15:55:11.430Z,101108.72
2022-08-19T15:58:36.086Z,101100.69
2022-08-19T16:01:51.979Z,101103.13
2022-08-19T16:05:08.532Z,101113.47
2022-08-19T16:08:05.981Z,101099.53
2022-08-19T16:11:03.443Z,101104.13
2022-08-19T16:14:00.655Z,101106.47
2022-08-19T16:16:57.798Z,101112.75
2022-08-19T16:19:55.687Z,101114.63
2022-08-19T16:22:52.694Z,101114.88
2022-08-19T16:25:50.552Z,101117.53
2022-08-19T16:28:48.519Z,101121.44
2022-08-19T16:31:46.148Z,101117.84
2022-08-19T16:34:43.516Z,101115.16
2022-08-19T16:37:40.525Z,101125.59
2022-08-19T16:40:37.780Z,101132.16
2022-08-19T16:43:35.741Z,101123.75
2022-08-19T16:46:33.605Z,101127.94
2022-08-19T16:49:53.947Z,101129.06
2022-08-19T16:52:48.437Z,101128.72
2022-08-19T16:55:46.517Z,101131.59
2022-08-19T16:58:44.280Z,101129.75
2022-08-19T17:01:43.416Z,101132.28
2022-08-19T17:04:41.097Z,101144.59
2022-08-19T17:07:38.558Z,101147.66
2022-08-19T17:10:38.167Z,101140.03
2022-08-19T17:13:35.688Z,101140.75
2022-08-19T17:16:34.423Z,101133.47
2022-08-19T17:19:31.896Z,101134.41
2022-08-19T17:22:29.830Z,101137.97
2022-08-19T17:25:28.663Z,101123.13
2022-08-19T17:28:30.188Z,101127.91
2022-08-19T17:31:29.088Z,101130.13
2022-08-19T17:34:26.235Z,101127.81
2022-08-19T17:37:23.691Z,101122.13
2022-08-19T17:40:23.935Z,101132.25
2022-08-19T17:43:32.788Z,101133.78
2022-08-19T17:46:31.879Z,101143.19
2022-08-19T17:49:30.053Z,101119.28
2022-08-19T17:52:29.828Z,101125.00
2022-08-19T17:55:27.453Z,101128.16
2022-08-19T17:58:25.714Z,101117.59
2022-08-19T18:01:23.696Z,101127.31
2022-08-19T18:04:24.091Z,101130.88
2022-08-19T18:07:21.991Z,101127.06
2022-08-19T18:10:20.586Z,101129.16
2022-08-19T18:13:18.645Z,101130.69
2022-08-19T18:16:17.005Z,101131.97
2022-08-19T18:19:14.598Z,101125.56
2022-08-19T18:22:30.789Z,101125.44
2022-08-19T18:25:28.462Z,101126.16
2022-08-19T18:28:25.892Z,101125.16
2022-08-19T18:31:23.688Z,101126.16
2022-08-19T18:34:22.111Z,101127.16
2022-08-19T18:37:19.670Z,101128.31
2022-08-19T18:40:37.454Z,101124.25
2022-08-19T18:43:53.423Z,101129.06
2022-08-19T18:47:08.807Z,101150.84
2022-08-19T18:50:19.774Z,101157.63
2022-08-19T18:53:16.886Z,101157.91
2022-08-19T18:56:16.047Z,101155.47
2022-08-19T18:59:14.286Z,101155.72
2022-08-19T19:02:14.625Z,101155.34
2022-08-19T19:05:13.002Z,101156.25
2022-08-19T19:08:13.645Z,101167.28
2022-08-19T19:11:10.711Z,101167.56
2022-08-19T19:14:19.270Z,101170.72
2022-08-19T19:17:28.251Z,101175.63
2022-08-19T19:20:35.340Z,101179.44
2022-08-19T19:23:34.000Z,101185.66
2022-08-19T19:26:31.190Z,101183.47
2022-08-19T19:29:28.467Z,101184.88
2022-08-19T19:32:29.497Z,101200.63
2022-08-19T19:35:27.268Z,101197.31
2022-08-19T19:38:24.849Z,101199.00
2022-08-19T19:41:26.084Z,101194.66
2022-08-19T19:44:30.902Z,101203.84
2022-08-19T19:47:30.284Z,101196.94
2022-08-19T19:50:31.229Z,101200.63
2022-08-19T19:53:28.891Z,101206.50
2022-08-19T19:56:25.800Z,101214.38
2022-08-19T19:59:22.988Z,101207.91
2022-08-19T20:02:20.985Z,101208.53
2022-08-19T20:05:21.523Z,101220.00
2022-08-19T20:08:37.283Z,101220.03
2022-08-19T20:11:35.390Z,101228.25
2022-08-19T20:14:33.607Z,101224.75
2022-08-19T20:17:30.518Z,101224.88
2022-08-19T20:20:27.884Z,101223.34
2022-08-19T20:23:24.702Z,101216.81
2022-08-19T20:26:33.880Z,101217.94
2022-08-19T20:29:39.017Z,101225.13
2022-08-19T20:32:37.723Z,101222.81
2022-08-19T20:35:35.657Z,101225.66
2022-08-19T20:38:35.033Z,101236.59
2022-08-19T20:41:31.956Z,101227.88
2022-08-19T20:44:29.785Z,101234.47
2022-08-19T20:47:26.692Z,101232.16
2022-08-19T20:50:23.715Z,101246.16
2022-08-19T20:53:22.941Z,101250.63
2022-08-19T20:56:20.702Z,101251.56
2022-08-19T20:59:19.995Z,101264.47
2022-08-19T21:02:16.902Z,101259.38
2022-08-19T21:05:13.886Z,101266.66
2022-08-19T21:08:11.006Z,101263.66
2022-08-19T21:11:10.227Z,101275.66
2022-08-19T21:14:08.025Z,101277.09
2022-08-19T21:17:04.778Z,101265.53
2022-08-19T21:20:02.203Z,101277.63
2022-08-19T21:23:06.912Z,101272.91
2022-08-19T21:26:03.850Z,101270.00
2022-08-19T21:29:00.792Z,101273.19
2022-08-19T21:31:57.907Z,101267.88
2022-08-19T21:34:54.892Z,101258.00
2022-08-19T21:37:52.085Z,101269.06
2022-08-19T21:40:49.058Z,101261.78
2022-08-19T21:43:45.663Z,101268.66
2022-08-19T21:46:42.664Z,101270.31
2022-08-19T21:49:39.557Z,101263.34
2022-08-19T21:52:37.322Z,101260.47
2022-08-19T21:55:34.529Z,101266.53
2022-08-19T21:58:31.866Z,101265.16
2022-08-19T22:01:28.939Z,101271.06
2022-08-19T22:04:25.925Z,101264.22
2022-08-19T22:07:24.115Z,101269.19
2022-08-19T22:10:22.247Z,101259.63
2022-08-19T22:13:20.430Z,101261.34
2022-08-19T22:16:18.229Z,101257.94
2022-08-19T22:19:16.164Z,101262.16
2022-08-19T22:22:14.966Z,101265.66
2022-08-19T22:25:13.590Z,101259.56
2022-08-19T22:28:28.287Z,101257.44
2022-08-19T22:31:26.087Z,101257.94
2022-08-19T22:34:24.854Z,101257.09
2022-08-19T22:37:22.723Z,101264.09
2022-08-19T22:40:20.295Z,101263.19
2022-08-19T22:43:27.218Z,101272.47
2022-08-19T22:46:24.779Z,101277.34
2022-08-19T22:49:22.085Z,101272.34
2022-08-19T22:52:19.103Z,101268.69
2022-08-19T22:55:16.820Z,101269.91
2022-08-19T22:58:15.029Z,101267.53
2022-08-19T23:01:29.864Z,101262.06
2022-08-19T23:04:27.966Z,101260.69
2022-08-19T23:07:24.989Z,101264.28
2022-08-19T23:10:27.582Z,101265.97
2022-08-19T23:13:24.863Z,101263.66
2022-08-19T23:16:21.763Z,101266.47
2022-08-19T23:19:20.474Z,101266.31
2022-08-19T23:22:18.608Z,101266.22
2022-08-19T23:25:20.741Z,101272.81
2022-08-19T23:28:36.525Z,101278.16
2022-08-19T23:31:35.584Z,101266.31
2022-08-19T23:34:32.545Z,101267.53
2022-08-19T23:37:29.989Z,101269.19
2022-08-19T23:40:27.892Z,101272.50
2022-08-19T23:43:25.377Z,101273.38
2022-08-19T23:46:27.998Z,101277.41
2022-08-19T23:49:26.168Z,101284.41
2022-08-19T23:52:23.293Z,101267.44
2022-08-19T23:55:22.981Z,101265.38
2022-08-19T23:58:19.870Z,101256.28
